Time;durP1;ratioP1;P1;durP2;ratioP2;P2;SDS_P1;SDS_P2;PMS_P1;PMS_P2;Temp;Humidity;BMP_temperature;BMP_pressure;BME280_temperature;BME280_humidity;BME280_pressure;Samples;Min_cycle;Max_cycle;Signal;HPM_P1;HPM_P2
2022/11/04 00:01:44;;;;;;;8.02;4.63;;;;;;;20.66;59.00;96348.28;5154393;27;20022;-33
2022/11/04 00:04:11;;;;;;;6.15;4.45;;;;;;;20.58;59.44;96330.72;5154362;27;20448;-33
2022/11/04 00:06:37;;;;;;;8.23;4.72;;;;;;;20.68;59.45;96324.50;5154454;27;20077;-33
2022/11/04 00:09:06;;;;;;;8.85;4.53;;;;;;;20.12;61.18;96314.47;5154543;27;20027;-33
2022/11/04 00:14:16;;;;;;;5.35;4.10;;;;;;;21.51;56.81;96290.09;5154221;27;20095;-34
2022/11/04 00:19:26;;;;;;;6.40;4.22;;;;;;;21.25;57.18;96325.44;5154114;27;20308;-33
2022/11/04 00:30:05;;;;;;;5.32;3.88;;;;;;;20.94;57.94;96294.00;5153829;27;20378;-34
2022/11/04 00:35:16;;;;;;;7.82;3.97;;;;;;;21.09;57.74;96266.22;5154021;27;20041;-33
2022/11/04 00:37:43;;;;;;;7.72;4.18;;;;;;;21.38;56.85;96284.31;5152047;27;20033;-33
2022/11/04 00:40:11;;;;;;;5.55;3.50;;;;;;;21.13;57.79;96266.72;5153511;27;20462;-33
2022/11/04 00:42:37;;;;;;;7.45;3.63;;;;;;;21.46;56.49;96257.72;5134998;27;20102;-33
2022/11/04 00:45:03;;;;;;;7.20;3.60;;;;;;;20.95;58.34;96251.41;5153601;27;20133;-33
2022/11/04 00:47:28;;;;;;;6.78;4.07;;;;;;;20.80;58.06;96237.09;5153661;27;20078;-33
2022/11/04 00:49:54;;;;;;;5.45;3.83;;;;;;;20.94;57.98;96244.38;5153507;27;20102;-33
2022/11/04 00:52:20;;;;;;;8.60;4.32;;;;;;;20.70;58.39;96235.81;5149436;27;20026;-33
2022/11/04 00:54:45;;;;;;;6.78;4.07;;;;;;;20.27;59.78;96259.97;5143904;27;20363;-33
2022/11/04 00:57:12;;;;;;;6.45;3.63;;;;;;;20.82;58.43;96256.66;5155437;27;20030;-33
2022/11/04 00:59:38;;;;;;;5.88;3.88;;;;;;;21.06;57.92;96248.66;5155547;27;20050;-34
2022/11/04 01:02:05;;;;;;;4.13;3.45;;;;;;;21.24;57.54;96221.88;5136734;27;20026;-33
2022/11/04 01:04:30;;;;;;;9.00;4.32;;;;;;;20.83;58.77;96238.09;5155301;27;20061;-34
2022/11/04 01:06:56;;;;;;;7.72;3.83;;;;;;;21.14;58.09;96229.63;5155306;27;20054;-34
2022/11/04 01:09:22;;;;;;;5.72;3.85;;;;;;;20.67;59.34;96232.06;5155200;27;20075;-33
2022/11/04 01:11:47;;;;;;;6.03;4.10;;;;;;;20.19;61.43;96232.13;5155237;27;20023;-33
2022/11/04 01:14:13;;;;;;;7.63;4.20;;;;;;;20.73;59.60;96219.06;5155062;27;20129;-33
2022/11/04 01:16:39;;;;;;;8.02;4.05;;;;;;;20.96;58.85;96228.09;5155187;27;20047;-33
2022/11/04 01:19:05;;;;;;;7.18;4.60;;;;;;;21.30;57.81;96208.81;5155209;27;20485;-34
2022/11/04 01:21:31;;;;;;;6.40;4.10;;;;;;;21.40;57.33;96221.09;5155241;27;20026;-34
2022/11/04 01:23:58;;;;;;;9.60;3.90;;;;;;;21.40;57.52;96204.53;5155116;27;20356;-33
2022/11/04 01:26:25;;;;;;;5.00;3.95;;;;;;;21.15;57.97;96200.78;5155075;27;20035;-34
2022/11/04 01:28:53;;;;;;;6.78;3.83;;;;;;;20.95;58.62;96221.09;5154958;27;20382;-33
2022/11/04 01:31:22;;;;;;;7.38;3.95;;;;;;;21.19;58.13;96175.75;5154863;27;20050;-33
2022/11/04 01:33:48;;;;;;;9.18;3.70;;;;;;;21.21;58.10;96170.47;5155060;27;20026;-33
2022/11/04 01:36:14;;;;;;;5.95;4.10;;;;;;;20.99;58.32;96155.44;5136795;27;20026;-34
2022/11/04 01:38:40;;;;;;;7.57;5.10;;;;;;;21.32;57.44;96176.72;5154961;27;20023;-34
2022/11/04 01:41:07;;;;;;;6.75;3.60;;;;;;;20.94;58.39;96180.97;5155133;27;20023;-33
2022/11/04 01:43:49;;;;;;;10.05;4.28;;;;;;;21.21;57.62;96151.19;5155022;27;20023;-33
2022/11/04 01:46:30;;;;;;;5.78;3.70;;;;;;;20.79;58.95;96139.88;5154971;27;20023;-33
2022/11/04 01:49:03;;;;;;;6.00;4.00;;;;;;;21.11;57.95;96114.81;5154928;27;20055;-33
2022/11/04 01:51:34;;;;;;;6.72;3.92;;;;;;;21.33;57.27;96108.53;5155421;27;20023;-33
2022/11/04 01:54:01;;;;;;;6.63;4.72;;;;;;;20.70;59.04;96131.13;5159092;27;20078;-33
2022/11/04 01:56:27;;;;;;;7.75;3.72;;;;;;;20.85;58.91;96136.38;5158933;27;20023;-33
2022/11/04 01:58:57;;;;;;;10.00;4.40;;;;;;;20.77;59.31;96125.84;5158872;27;20031;-34
2022/11/04 02:01:22;;;;;;;9.40;3.97;;;;;;;20.73;59.37;96119.09;5140452;27;20050;-34
2022/11/04 02:03:51;;;;;;;5.75;4.15;;;;;;;20.35;60.67;96118.56;5158814;27;20382;-35
2022/11/04 02:06:18;;;;;;;7.82;4.30;;;;;;;20.97;58.80;96091.78;5158561;27;20027;-33
2022/11/04 02:08:45;;;;;;;8.75;4.80;;;;;;;20.60;60.41;96088.53;5158770;27;20102;-38
2022/11/04 02:12:48;;;;;;;8.10;3.63;;;;;;;20.99;59.01;96072.72;5158566;27;20050;-35
2022/11/04 02:13:56;;;;;;;5.43;4.22;;;;;;;20.71;60.17;96044.44;5158318;27;20133;-35
2022/11/04 02:16:44;;;;;;;9.13;4.20;;;;;;;20.80;60.14;96055.19;5158481;27;20143;-34
2022/11/04 02:19:24;;;;;;;5.70;3.97;;;;;;;21.05;59.62;96070.69;5158639;27;20049;-33
2022/11/04 02:22:24;;;;;;;14.25;5.53;;;;;;;20.37;62.22;96066.50;5158367;27;20037;-35
2022/11/04 02:24:52;;;;;;;7.50;4.47;;;;;;;20.51;61.67;96037.19;5158348;27;20023;-33
2022/11/04 02:27:17;;;;;;;7.32;4.40;;;;;;;20.28;63.12;96036.41;5158535;27;20351;-33
2022/11/04 02:30:03;;;;;;;7.53;4.53;;;;;;;20.55;61.91;96010.13;5158505;27;20128;-33
2022/11/04 02:32:43;;;;;;;8.27;4.25;;;;;;;20.80;61.19;96025.63;5158319;27;20026;-35
2022/11/04 02:35:20;;;;;;;9.00;4.00;;;;;;;20.82;61.12;96016.13;5158455;27;20374;-33
2022/11/04 02:38:21;;;;;;;8.77;4.47;;;;;;;20.24;63.50;96033.16;5158476;27;20052;-33
2022/11/04 02:40:56;;;;;;;10.48;4.13;;;;;;;20.97;60.82;96027.63;5053993;28;20037;-33
2022/11/04 02:43:40;;;;;;;8.60;4.40;;;;;;;21.10;60.61;96042.38;5054184;28;20124;-33
2022/11/04 02:46:25;;;;;;;7.82;5.65;;;;;;;20.80;61.90;96022.88;5053969;28;20572;-33
2022/11/04 02:49:06;;;;;;;10.73;4.07;;;;;;;20.98;61.37;96031.88;5053873;28;20433;-33
2022/11/04 02:51:37;;;;;;;11.45;5.90;;;;;;;20.72;62.43;96023.91;5053960;28;20413;-33
2022/11/04 02:54:15;;;;;;;8.65;4.32;;;;;;;20.90;62.21;96028.88;5051977;28;20033;-33
2022/11/04 02:56:48;;;;;;;13.80;4.85;;;;;;;21.23;61.02;95989.47;5051320;28;20043;-33
2022/11/04 02:59:17;;;;;;;;;;;;;;;21.05;61.53;96004.53;5053990;28;20025;-34
2022/11/04 03:01:46;;;;;;;7.30;4.20;;;;;;;21.17;60.79;96000.47;5053397;28;19913;-34
2022/11/04 03:04:20;;;;;;;8.35;4.75;;;;;;;21.35;60.15;96001.19;5052580;28;20033;-34
2022/11/04 03:06:49;;;;;;;10.25;4.85;;;;;;;21.45;59.67;96014.19;5053611;28;20084;-33
2022/11/04 03:09:17;;;;;;;10.75;4.43;;;;;;;21.54;58.89;96006.88;5053687;28;20505;-34
2022/11/04 03:11:47;;;;;;;10.18;5.03;;;;;;;21.57;59.18;96020.41;5053513;28;20021;-33
2022/11/04 03:14:27;;;;;;;12.32;5.18;;;;;;;21.57;58.80;96020.41;5053174;28;20049;-33
2022/11/04 03:17:02;;;;;;;9.05;4.10;;;;;;;21.60;59.19;96029.69;5130350;27;20038;-33
2022/11/04 03:19:46;;;;;;;11.60;4.80;;;;;;;21.52;59.15;96030.19;5157980;27;20019;-33
2022/11/04 03:22:17;;;;;;;10.18;4.97;;;;;;;21.52;59.12;96027.44;5138718;27;20451;-35
2022/11/04 03:24:45;;;;;;;12.98;5.97;;;;;;;21.53;59.66;96042.00;5157340;27;20037;-33
2022/11/04 03:27:42;;;;;;;12.23;4.57;;;;;;;21.50;59.51;96032.75;5157464;27;20023;-34
2022/11/04 03:30:13;;;;;;;13.30;4.80;;;;;;;21.60;59.01;96041.47;5152031;27;20035;-35
2022/11/04 03:32:51;;;;;;;12.18;4.78;;;;;;;21.58;59.43;96057.03;5157289;27;20511;-33
2022/11/04 03:35:18;;;;;;;9.57;4.82;;;;;;;21.67;59.44;96060.25;5157310;27;20030;-34
2022/11/04 03:37:46;;;;;;;14.55;5.35;;;;;;;21.69;59.10;96034.91;5156916;27;20374;-35
2022/11/04 03:40:13;;;;;;;9.90;4.68;;;;;;;21.65;58.97;96037.91;5156907;27;20023;-33
2022/11/04 03:43:05;;;;;;;12.52;5.32;;;;;;;21.65;58.81;96046.19;5156655;27;20485;-34
2022/11/04 03:45:30;;;;;;;10.40;5.28;;;;;;;21.62;59.38;96050.00;5151936;27;20118;-33
2022/11/04 03:47:57;;;;;;;9.77;4.63;;;;;;;21.72;59.50;96048.44;5138358;27;20095;-33
2022/11/04 03:50:27;;;;;;;10.00;5.18;;;;;;;21.65;59.93;96053.72;5157007;27;20023;-34
2022/11/04 03:52:53;;;;;;;11.18;5.03;;;;;;;21.55;60.04;96058.78;5156779;27;20060;-33
2022/11/04 03:55:20;;;;;;;12.52;5.40;;;;;;;21.64;59.81;96050.22;5156706;27;20101;-33
2022/11/04 03:58:03;;;;;;;10.90;5.03;;;;;;;21.57;60.46;96036.22;5156740;27;20026;-33
2022/11/04 04:00:37;;;;;;;11.18;4.90;;;;;;;21.52;60.73;96041.25;5156617;27;20019;-33
2022/11/04 04:03:11;;;;;;;9.70;4.70;;;;;;;21.65;59.88;96050.97;5148242;27;20034;-33
2022/11/04 04:05:56;;;;;;;9.82;5.28;;;;;;;21.74;59.59;96064.50;5135915;27;20031;-33
2022/11/04 04:08:33;;;;;;;12.90;5.82;;;;;;;21.67;59.86;96057.47;5135810;27;20092;-33
2022/11/04 04:11:28;;;;;;;13.60;5.68;;;;;;;21.69;60.15;96052.22;5135833;27;20020;-34
2022/11/04 04:13:57;;;;;;;12.50;5.40;;;;;;;21.75;59.63;96047.44;5135356;27;20161;-33
2022/11/04 04:16:23;;;;;;;9.88;5.05;;;;;;;21.71;59.86;96048.94;5135369;27;20027;-35
2022/11/04 04:18:56;;;;;;;13.60;5.18;;;;;;;21.76;59.67;96040.63;5135621;27;20078;-33
2022/11/04 04:21:36;;;;;;;11.27;5.57;;;;;;;21.67;60.53;96038.16;5135354;27;20076;-34
2022/11/04 04:29:37;;;;;;;11.57;5.40;;;;;;;21.75;60.05;96036.38;5135343;27;20136;-33
2022/11/04 04:32:04;;;;;;;11.00;5.03;;;;;;;21.57;61.17;96050.00;5135136;27;20428;-33
2022/11/04 04:34:32;;;;;;;10.07;5.00;;;;;;;21.60;60.42;96024.91;5116881;27;20031;-34
2022/11/04 04:37:12;;;;;;;13.40;6.00;;;;;;;21.59;61.12;96023.41;5135001;27;20031;-33
2022/11/04 04:45:42;;;;;;;11.05;5.80;;;;;;;21.68;60.69;96017.59;5135167;27;20584;-34
2022/11/04 04:48:12;;;;;;;13.75;5.30;;;;;;;21.69;60.76;96018.34;5134262;27;20043;-33
2022/11/04 04:50:47;;;;;;;12.15;5.10;;;;;;;21.64;61.40;96000.53;5135098;27;20019;-33
2022/11/04 04:53:13;;;;;;;11.50;5.85;;;;;;;21.63;61.23;96014.88;5134606;27;20023;-33
2022/11/04 04:55:38;;;;;;;12.77;5.72;;;;;;;21.65;61.11;96015.84;5134865;27;20022;-34
2022/11/04 04:58:04;;;;;;;11.65;5.50;;;;;;;21.61;61.03;95998.06;5134709;27;20103;-33
2022/11/04 05:00:29;;;;;;;16.42;6.72;;;;;;;21.58;61.71;95997.06;5134808;27;20093;-33
2022/11/04 05:02:55;;;;;;;14.27;5.80;;;;;;;21.57;61.39;95990.06;5134685;27;20019;-34
2022/11/04 05:05:22;;;;;;;12.93;5.70;;;;;;;21.56;62.16;95993.31;5134756;27;20484;-33
2022/11/04 05:07:48;;;;;;;13.15;5.45;;;;;;;21.62;61.39;95981.00;5134699;27;20447;-33
2022/11/04 05:10:14;;;;;;;14.43;5.65;;;;;;;21.50;62.01;95990.59;5134655;27;20030;-34
2022/11/04 05:15:26;;;;;;;11.50;5.03;;;;;;;21.62;60.98;96000.31;5134917;27;20541;-34
2022/11/04 05:17:57;;;;;;;18.63;5.93;;;;;;;21.58;61.02;96004.59;5134502;27;20034;-33
2022/11/04 05:20:23;;;;;;;12.25;5.50;;;;;;;21.58;61.28;95997.06;5134413;27;20027;-34
2022/11/04 05:22:48;;;;;;;11.13;5.00;;;;;;;21.70;60.71;96004.03;5134433;27;20123;-34
2022/11/04 05:25:14;;;;;;;10.38;5.10;;;;;;;21.67;60.73;96001.53;5134389;28;20056;-34
2022/11/04 05:27:39;;;;;;;12.38;5.20;;;;;;;21.64;60.57;95994.28;5133562;27;20058;-33
2022/11/04 05:30:06;;;;;;;10.57;4.97;;;;;;;21.75;60.51;95994.22;5134325;28;20110;-34
2022/11/04 05:32:31;;;;;;;13.98;5.35;;;;;;;21.77;60.33;96003.47;5134378;28;20058;-34
2022/11/04 05:34:57;;;;;;;15.48;6.07;;;;;;;21.81;60.03;96003.97;5134231;28;20043;-33
2022/11/04 05:37:23;;;;;;;9.60;5.28;;;;;;;21.83;60.13;96003.47;5134479;28;20460;-33
2022/11/04 05:39:49;;;;;;;11.18;6.35;;;;;;;21.83;59.90;96004.22;5134215;28;20144;-33
2022/11/04 05:42:14;;;;;;;11.25;5.55;;;;;;;21.76;59.44;95998.50;5134109;28;20094;-33
2022/11/04 05:44:40;;;;;;;10.88;4.78;;;;;;;21.76;60.11;96004.03;5134325;28;20572;-33
2022/11/04 05:47:05;;;;;;;8.65;5.15;;;;;;;21.78;59.91;96001.47;5134257;28;20023;-33
2022/11/04 05:49:31;;;;;;;11.35;5.10;;;;;;;21.77;60.16;95997.97;5134163;28;20106;-34
2022/11/04 05:51:58;;;;;;;9.85;5.68;;;;;;;21.76;59.96;96009.53;5134302;28;20027;-33
2022/11/04 05:54:24;;;;;;;8.85;4.55;;;;;;;21.79;59.53;96000.22;5134278;28;20031;-33
2022/11/04 05:56:51;;;;;;;9.25;4.63;;;;;;;21.79;59.31;96003.72;5134148;28;20023;-34
2022/11/04 05:59:17;;;;;;;13.05;5.82;;;;;;;21.80;59.74;96004.47;5134096;28;20038;-33
2022/11/04 06:01:43;;;;;;;9.35;5.10;;;;;;;21.78;59.63;96009.75;5133898;28;20023;-33
2022/11/04 06:04:14;;;;;;;10.43;4.88;;;;;;;21.75;59.93;96010.78;5133982;28;20023;-33
2022/11/04 06:06:40;;;;;;;14.43;5.38;;;;;;;21.76;59.81;96007.50;5134109;28;20023;-35
2022/11/04 06:09:05;;;;;;;9.40;5.35;;;;;;;21.72;59.29;96006.28;5133939;28;20031;-33
2022/11/04 06:11:32;;;;;;;9.05;5.22;;;;;;;21.72;59.37;96020.84;5134018;28;20019;-34
2022/11/04 06:13:58;;;;;;;9.82;5.25;;;;;;;21.70;59.50;96009.56;5133855;28;20074;-35
2022/11/04 06:16:24;;;;;;;13.98;5.43;;;;;;;21.67;60.08;96005.03;5133909;28;20069;-33
2022/11/04 06:18:50;;;;;;;9.48;5.35;;;;;;;21.76;59.20;95990.22;5134002;28;20487;-34
2022/11/04 06:21:17;;;;;;;9.30;5.32;;;;;;;21.72;59.72;95996.00;5133918;28;20475;-33
2022/11/04 06:23:43;;;;;;;8.18;4.82;;;;;;;21.73;59.45;95983.69;5133875;28;20031;-33
2022/11/04 06:26:10;;;;;;;8.35;5.03;;;;;;;21.66;59.21;95991.75;5134017;28;20027;-33
2022/11/04 06:28:36;;;;;;;11.20;4.80;;;;;;;21.71;59.72;95988.22;5133775;28;20031;-33
2022/11/04 06:31:04;;;;;;;19.13;5.47;;;;;;;21.69;59.43;95997.00;5133737;28;20027;-34
2022/11/04 06:33:30;;;;;;;15.98;5.00;;;;;;;21.81;58.76;95987.41;5133668;28;20080;-33
2022/11/04 06:35:57;;;;;;;16.63;5.22;;;;;;;21.70;59.48;95984.72;5133772;28;20543;-32
2022/11/04 06:38:22;;;;;;;12.27;5.57;;;;;;;21.63;59.40;95985.28;5135053;27;20022;-33
2022/11/04 06:40:48;;;;;;;16.35;5.05;;;;;;;21.68;59.53;95983.72;5131718;27;20027;-34
2022/11/04 06:43:13;;;;;;;12.85;4.43;;;;;;;21.65;59.76;95979.22;5113417;27;20030;-33
2022/11/04 06:45:39;;;;;;;13.30;4.72;;;;;;;21.73;59.19;95978.19;5130600;27;20567;-34
2022/11/04 06:48:04;;;;;;;13.85;5.28;;;;;;;21.79;59.30;95978.88;5129673;27;20455;-34
2022/11/04 06:50:30;;;;;;;13.45;4.93;;;;;;;21.58;59.79;95969.47;5122716;27;20039;-33
2022/11/04 06:52:55;;;;;;;12.70;5.20;;;;;;;21.69;59.69;95966.66;5121805;27;20268;-33
2022/11/04 06:55:21;;;;;;;10.00;4.55;;;;;;;21.67;59.86;95977.44;5122555;27;20477;-34
2022/11/04 06:57:46;;;;;;;12.48;5.30;;;;;;;21.55;59.72;95989.81;5122433;27;20297;-33
2022/11/04 07:00:12;;;;;;;13.80;5.07;;;;;;;21.54;60.04;95977.28;5126037;27;20352;-33
2022/11/04 07:02:38;;;;;;;9.07;4.88;;;;;;;21.56;59.47;95977.53;5139295;27;20023;-33
2022/11/04 07:05:04;;;;;;;11.43;4.70;;;;;;;21.57;59.72;95997.59;5154671;27;20101;-33
2022/11/04 07:07:29;;;;;;;11.45;4.60;;;;;;;21.57;59.70;95994.81;5155171;27;20427;-33
2022/11/04 07:09:55;;;;;;;7.78;4.72;;;;;;;21.70;59.43;95986.72;5155590;27;20146;-35
2022/11/04 07:12:22;;;;;;;11.70;4.43;;;;;;;21.49;59.88;95989.09;5155318;27;20551;-33
2022/11/04 07:14:48;;;;;;;10.50;4.38;;;;;;;21.62;59.20;95986.53;5155664;27;20474;-34
2022/11/04 07:17:13;;;;;;;10.10;4.97;;;;;;;21.59;59.10;95981.28;5155192;27;20023;-34
2022/11/04 07:19:39;;;;;;;9.00;4.55;;;;;;;21.58;59.40;95986.03;5134985;27;20057;-34
2022/11/04 07:22:04;;;;;;;7.05;4.05;;;;;;;21.52;59.68;95993.59;5154888;27;20106;-35
2022/11/04 07:24:30;;;;;;;11.15;4.20;;;;;;;21.47;60.07;95975.81;5155378;27;20027;-34
2022/11/04 07:26:55;;;;;;;7.97;4.45;;;;;;;21.52;59.43;95982.53;5155250;27;20026;-33
2022/11/04 07:29:21;;;;;;;9.05;4.15;;;;;;;21.52;59.42;95990.81;5154875;27;20050;-33
2022/11/04 07:31:46;;;;;;;9.23;4.28;;;;;;;21.46;59.56;95996.38;5155220;27;20019;-36
2022/11/04 07:34:12;;;;;;;9.60;4.50;;;;;;;21.58;59.49;95974.25;5155060;27;20461;-33
2022/11/04 07:36:37;;;;;;;9.38;4.50;;;;;;;21.53;59.81;95984.03;5154394;27;20023;-35
2022/11/04 07:39:05;;;;;;;8.45;4.05;;;;;;;21.52;60.17;95985.31;5155211;27;20014;-36
2022/11/04 07:41:31;;;;;;;8.75;4.47;;;;;;;21.58;59.41;95988.03;5154516;27;20026;-36
2022/11/04 07:43:57;;;;;;;8.10;4.88;;;;;;;21.64;58.98;95994.28;5154962;27;20086;-35
2022/11/04 07:46:23;;;;;;;9.18;4.22;;;;;;;21.62;59.26;95992.03;5154694;27;20367;-33
2022/11/04 07:48:49;;;;;;;8.25;4.15;;;;;;;21.60;59.26;95980.75;5154432;27;20048;-33
2022/11/04 07:51:17;;;;;;;5.45;3.80;;;;;;;21.54;59.54;95982.78;5154267;27;20031;-36
2022/11/04 07:53:43;;;;;;;8.18;3.88;;;;;;;21.49;59.96;95981.56;5143930;27;20087;-36
2022/11/04 07:56:10;;;;;;;9.50;4.03;;;;;;;21.54;59.70;95984.81;5133574;27;20526;-35
2022/11/04 07:58:36;;;;;;;9.40;4.15;;;;;;;21.48;60.18;95990.34;5133583;27;20031;-35
2022/11/04 08:01:17;;;;;;;11.43;4.40;;;;;;;21.64;59.25;95983.97;5133491;27;20368;-33
2022/11/04 08:03:43;;;;;;;7.03;3.95;;;;;;;21.58;59.32;95977.00;5133501;27;20030;-36
2022/11/04 08:06:12;;;;;;;12.60;5.10;;;;;;;20.76;63.59;95974.81;5133210;27;20487;-36
2022/11/04 08:08:38;;;;;;;10.68;4.22;;;;;;;21.12;62.70;95962.66;5133663;27;20023;-37
2022/11/04 08:11:07;;;;;;;16.25;3.97;;;;;;;21.44;61.51;95948.50;5115331;27;20034;-35
2022/11/04 08:13:35;;;;;;;10.20;4.07;;;;;;;21.51;60.87;95945.19;5133475;27;20183;-37
2022/11/04 08:16:06;;;;;;;11.30;4.28;;;;;;;21.49;60.52;95944.97;5132951;27;20023;-36
2022/11/04 08:18:32;;;;;;;12.18;4.20;;;;;;;21.63;60.50;95934.84;5132087;27;20027;-37
2022/11/04 08:20:58;;;;;;;10.73;4.05;;;;;;;21.71;60.20;95930.28;5133360;27;20019;-36
2022/11/04 08:23:25;;;;;;;10.60;4.07;;;;;;;21.74;59.97;95938.28;5133209;27;20483;-37
2022/11/04 08:25:50;;;;;;;12.18;3.97;;;;;;;21.74;59.85;95932.75;5114996;27;20042;-33
2022/11/04 08:28:16;;;;;;;12.20;4.10;;;;;;;21.62;60.05;95934.09;5133221;27;20066;-33
2022/11/04 08:31:01;;;;;;;7.82;3.80;;;;;;;21.70;59.59;95932.28;5133334;27;20038;-34
2022/11/04 08:33:28;;;;;;;9.68;3.40;;;;;;;21.51;60.23;95909.34;5133235;27;20084;-34
2022/11/04 08:35:57;;;;;;;7.68;2.97;;;;;;;21.62;59.79;95912.03;5133170;27;20023;-33
2022/11/04 08:38:23;;;;;;;8.57;3.30;;;;;;;21.76;59.84;95910.19;5133021;27;20031;-34
2022/11/04 08:40:49;;;;;;;9.63;3.80;;;;;;;21.77;59.79;95904.13;5132611;27;20102;-35
2022/11/04 08:43:14;;;;;;;9.02;3.45;;;;;;;21.77;59.19;95906.88;5132897;27;20079;-34
2022/11/04 08:45:45;;;;;;;8.50;3.83;;;;;;;21.58;60.13;95908.03;5133026;27;20516;-33
2022/11/04 08:48:12;;;;;;;9.93;3.00;;;;;;;21.54;60.07;95900.00;5132769;27;20497;-34
2022/11/04 08:50:37;;;;;;;8.63;3.42;;;;;;;21.58;60.16;95894.97;5132797;27;20023;-33
2022/11/04 08:53:03;;;;;;;8.65;3.38;;;;;;;21.34;61.83;95897.66;5137222;27;20064;-34
2022/11/04 08:55:30;;;;;;;10.40;3.33;;;;;;;21.34;62.01;95900.41;5153647;27;20046;-35
2022/11/04 08:57:56;;;;;;;6.75;3.58;;;;;;;21.48;61.64;95899.31;5153586;27;20026;-33
2022/11/04 09:00:22;;;;;;;8.07;3.22;;;;;;;21.46;61.46;95896.31;5153141;27;20428;-33
2022/11/04 09:02:47;;;;;;;12.93;3.90;;;;;;;21.39;61.54;95878.28;5152555;27;20052;-34
2022/11/04 09:05:13;;;;;;;9.85;3.35;;;;;;;21.43;61.72;95891.81;5145673;27;20135;-34
2022/11/04 09:07:39;;;;;;;9.82;3.17;;;;;;;21.38;61.63;95884.34;5134749;27;20019;-35
2022/11/04 09:10:06;;;;;;;11.00;3.20;;;;;;;21.63;60.91;95877.66;5134597;27;20030;-33
2022/11/04 09:12:32;;;;;;;8.52;3.30;;;;;;;21.54;60.98;95885.47;5134689;27;20043;-33
2022/11/04 09:14:58;;;;;;;10.30;3.05;;;;;;;21.54;61.56;95866.91;5135029;27;20493;-33
2022/11/04 09:17:24;;;;;;;6.00;2.92;;;;;;;21.68;60.61;95878.84;5134752;27;20033;-34
2022/11/04 09:19:50;;;;;;;11.20;3.22;;;;;;;21.21;63.55;95902.97;5134365;27;20098;-34
2022/11/04 09:22:16;;;;;;;13.32;3.40;;;;;;;21.32;62.41;95875.34;5134464;27;20026;-34
2022/11/04 09:24:42;;;;;;;9.50;3.17;;;;;;;21.56;61.19;95889.22;5134473;28;20015;-34
2022/11/04 09:27:07;;;;;;;7.75;3.33;;;;;;;21.51;61.12;95898.31;5134473;28;20054;-33
2022/11/04 09:29:35;;;;;;;15.45;3.97;;;;;;;21.43;61.83;95906.34;5134462;28;20030;-34
2022/11/04 09:32:02;;;;;;;13.35;4.10;;;;;;;21.50;61.72;95896.81;5134235;28;20015;-35
2022/11/04 09:34:27;;;;;;;9.10;3.45;;;;;;;21.58;61.50;95892.22;5134295;28;20152;-33
2022/11/04 09:36:56;;;;;;;11.20;3.35;;;;;;;21.49;61.42;95881.50;5134320;28;20102;-35
2022/11/04 09:39:25;;;;;;;10.70;2.90;;;;;;;21.69;61.33;95894.91;5134458;28;20024;-34
2022/11/04 09:41:56;;;;;;;7.18;2.97;;;;;;;21.58;61.11;95894.97;5134456;28;20502;-33
2022/11/04 09:44:32;;;;;;;14.43;3.45;;;;;;;21.42;62.51;95890.31;5134423;28;20542;-34
2022/11/04 09:47:01;;;;;;;9.32;2.65;;;;;;;21.52;61.44;95883.22;5134102;28;20094;-34
2022/11/04 09:49:31;;;;;;;10.63;3.40;;;;;;;21.49;62.05;95890.53;5115660;28;20079;-34
2022/11/04 09:51:58;;;;;;;9.65;3.28;;;;;;;21.59;61.22;95876.41;5134225;28;20398;-34
2022/11/04 09:54:37;;;;;;;10.85;3.38;;;;;;;21.63;61.47;95874.88;5134067;28;20523;-35
2022/11/04 09:57:04;;;;;;;11.88;3.47;;;;;;;21.46;61.76;95847.41;5133996;28;20023;-33
2022/11/04 09:59:33;;;;;;;10.18;3.58;;;;;;;21.55;61.97;95857.38;5134069;28;20034;-33
2022/11/04 10:02:10;;;;;;;12.55;3.30;;;;;;;21.55;62.14;95871.16;5134027;28;20434;-34
2022/11/04 10:04:57;;;;;;;13.10;3.83;;;;;;;21.42;62.13;95866.25;5134078;28;20019;-34
2022/11/04 10:07:28;;;;;;;13.00;3.00;;;;;;;21.27;63.39;95865.06;5133853;28;20047;-34
2022/11/04 10:10:22;;;;;;;8.10;2.70;;;;;;;21.28;63.41;95863.81;5133849;28;20379;-34
2022/11/04 10:13:06;;;;;;;9.63;2.05;;;;;;;20.49;65.23;95870.94;5134569;27;20047;-36
2022/11/04 10:16:05;;;;;;;12.88;3.22;;;;;;;21.14;62.66;95869.13;5137805;27;20079;-33
2022/11/04 10:19:11;;;;;;;6.45;2.40;;;;;;;21.42;61.59;95865.50;5136727;27;20038;-33
2022/11/04 10:22:00;;;;;;;8.13;2.83;;;;;;;21.56;60.69;95849.84;5137617;27;20027;-33
2022/11/04 10:24:34;;;;;;;8.27;2.25;;;;;;;21.51;60.83;95845.88;5137781;27;20015;-33
2022/11/04 10:27:04;;;;;;;8.88;2.42;;;;;;;21.34;61.36;95834.22;5119140;27;20034;-33
2022/11/04 10:29:47;;;;;;;8.68;2.30;;;;;;;21.47;59.87;95840.63;5137537;27;20022;-33
2022/11/04 10:32:35;;;;;;;8.70;2.00;;;;;;;21.63;59.53;95839.00;5137716;27;20026;-36
2022/11/04 10:35:08;;;;;;;5.93;2.08;;;;;;;21.43;60.21;95829.13;5119134;27;20035;-34
2022/11/04 10:37:34;;;;;;;;;;;;;;;21.32;60.47;95836.72;5138208;27;20023;-34
2022/11/04 10:40:05;;;;;;;;;;;;;;;21.51;59.86;95854.16;5137833;27;19915;-37
2022/11/04 10:42:31;;;;;;;;;;;;;;;21.45;60.11;95843.16;5137731;27;19954;-36
2022/11/04 10:44:56;;;;;;;;;;;;;;;21.37;60.16;95849.75;5137723;27;19911;-34
2022/11/04 10:47:34;;;;;;;;;;;;;;;21.42;59.70;95846.19;5137714;27;19914;-34
2022/11/04 10:50:14;;;;;;;;;;;;;;;21.39;60.02;95844.44;5137559;27;19907;-34
2022/11/04 10:52:40;;;;;;;;;;;;;;;21.51;59.18;95843.84;5137655;27;19908;-34
2022/11/04 10:55:13;;;;;;;;;;;;;;;21.48;59.35;95839.38;5137746;27;19907;-34
2022/11/04 10:57:39;;;;;;;;;;;;;;;21.57;59.06;95834.78;5137638;27;19914;-34
2022/11/04 11:00:05;;;;;;;;;;;;;;;21.61;58.65;95830.50;5137395;27;19908;-34
2022/11/04 11:02:36;;;;;;;;;;;;;;;21.52;58.68;95823.28;5137641;27;19911;-34
2022/11/04 11:05:33;;;;;;;;;;;;;;;21.54;58.47;95825.53;5143641;27;19958;-35
2022/11/04 11:07:59;;;;;;;;;;;;;;;21.63;58.13;95833.50;5098715;27;19914;-34
2022/11/04 11:10:24;;;;;;;;;;;;;;;21.69;58.07;95834.19;5157838;27;20359;-35
2022/11/04 11:12:51;;;;;;;;;;;;;;;21.56;58.05;95830.53;5157826;27;20013;-34
2022/11/04 11:15:23;;;;;;;;;;;;;;;21.68;57.36;95829.19;5157898;27;19940;-34
2022/11/04 11:17:49;;;;;;;;;;;;;;;21.62;57.80;95832.00;5158110;27;19907;-34
2022/11/04 11:20:22;;;;;;;;;;;;;;;21.60;57.79;95828.25;5157737;27;19907;-35
2022/11/04 11:22:50;;;;;;;;;;;;;;;21.72;57.56;95829.66;5157785;27;19918;-34
2022/11/04 11:25:23;;;;;;;;;;;;;;;21.71;57.44;95831.66;5156575;27;20006;-35
2022/11/04 11:27:52;;;;;;;;;;;;;;;21.73;57.14;95831.91;5157720;27;20286;-34
2022/11/04 11:30:22;;;;;;;;;;;;;;;21.67;57.23;95833.19;5157505;27;20274;-35
2022/11/04 11:32:52;;;;;;;;;;;;;;;21.60;57.16;95828.25;5157563;27;19951;-34
2022/11/04 11:35:20;;;;;;;;;;;;;;;21.60;57.30;95829.00;5157717;27;19907;-37
2022/11/04 11:37:46;;;;;;;;;;;;;;;21.66;57.09;95817.91;5157593;27;19953;-34
2022/11/04 11:40:41;;;;;;;;;;;;;;;21.70;56.96;95813.59;5157373;27;19907;-35
2022/11/04 11:43:06;;;;;;;;;;;;;;;21.70;56.98;95813.59;5134860;27;19968;-35
2022/11/04 11:45:32;;;;;;;;;;;;;;;21.77;56.37;95820.56;5157527;27;19957;-34
2022/11/04 11:47:57;;;;;;;;;;;;;;;21.55;56.95;95810.47;5157355;27;19906;-34
2022/11/04 11:50:36;;;;;;;;;;;;;;;21.59;56.34;95810.94;5157128;27;19907;-34
2022/11/04 11:53:15;;;;;;;;;;;;;;;21.63;56.58;95819.69;5157265;27;19907;-35
2022/11/04 11:56:05;;;;;;;;;;;;;;;21.58;56.90;95817.72;5157262;27;19911;-36
2022/11/04 11:58:33;;;;;;;;;;;;;;;21.60;56.67;95806.94;5144701;27;19997;-35
2022/11/04 12:01:06;;;;;;;;;;;;;;;21.71;56.40;95801.31;5138325;27;20323;-34
2022/11/04 12:03:40;;;;;;;;;;;;;;;21.69;56.12;95805.84;5157064;27;19907;-35
2022/11/04 12:06:21;;;;;;;;;;;;;;;21.69;56.08;95814.88;5156849;27;20383;-34
2022/11/04 12:08:50;;;;;;;;;;;;;;;21.68;55.99;95818.88;5157125;27;19918;-35
2022/11/04 12:11:21;;;;;;;;;;;;;;;21.70;55.95;95821.88;5156709;27;20283;-34
2022/11/04 12:13:56;;;;;;;;;;;;;;;21.69;56.04;95823.16;5156703;27;19926;-35
2022/11/04 12:19:32;;;;;;;;;;;;;;;21.67;56.00;95820.16;5156493;27;19918;-34
2022/11/04 12:22:08;;;;;;;;;;;;;;;21.72;55.69;95822.13;5156525;27;19911;-35
2022/11/04 12:24:43;;;;;;;;;;;;;;;21.69;55.49;95809.34;5156747;27;19907;-35
2022/11/04 12:27:28;;;;;;;;;;;;;;;21.70;55.72;95810.09;5156490;27;19914;-35
2022/11/04 12:30:13;;;;;;;;;;;;;;;21.71;55.71;95812.34;5104007;27;19906;-35